sensor_id;sensor_type;location;lat;lon;timestamp;pressure;altitude;pressure_sealevel;temperature;humidity
43115;BME280;28727;50.068;14.452;2022-10-15T00:01:57;98894.97;;;13.85;70.52
43115;BME280;28727;50.068;14.452;2022-10-15T00:04:29;98889.25;;;13.82;70.89
43115;BME280;28727;50.068;14.452;2022-10-15T00:07:02;98886.78;;;13.80;70.73
43115;BME280;28727;50.068;14.452;2022-10-15T00:09:33;98877.81;;;13.75;70.95
43115;BME280;28727;50.068;14.452;2022-10-15T00:12:05;98879.25;;;13.77;71.00
43115;BME280;28727;50.068;14.452;2022-10-15T00:14:37;98878.84;;;13.80;70.72
43115;BME280;28727;50.068;14.452;2022-10-15T00:17:09;98888.44;;;13.81;70.39
43115;BME280;28727;50.068;14.452;2022-10-15T00:19:40;98878.19;;;13.78;70.58
43115;BME280;28727;50.068;14.452;2022-10-15T00:22:12;98882.50;;;13.79;71.02
43115;BME280;28727;50.068;14.452;2022-10-15T00:24:44;98870.66;;;13.82;70.62
43115;BME280;28727;50.068;14.452;2022-10-15T00:27:16;98880.28;;;13.83;70.83
43115;BME280;28727;50.068;14.452;2022-10-15T00:29:48;98878.22;;;13.85;70.64
43115;BME280;28727;50.068;14.452;2022-10-15T00:32:22;98874.75;;;13.84;70.50
43115;BME280;28727;50.068;14.452;2022-10-15T00:34:57;98871.31;;;13.84;70.60
43115;BME280;28727;50.068;14.452;2022-10-15T00:37:29;98864.75;;;13.80;70.81
43115;BME280;28727;50.068;14.452;2022-10-15T00:40:01;98860.84;;;13.76;71.16
43115;BME280;28727;50.068;14.452;2022-10-15T00:42:37;98863.31;;;13.77;71.16
43115;BME280;28727;50.068;14.452;2022-10-15T00:45:12;98849.00;;;13.72;71.20
43115;BME280;28727;50.068;14.452;2022-10-15T00:47:48;98853.28;;;13.66;71.25
43115;BME280;28727;50.068;14.452;2022-10-15T00:50:25;98858.19;;;13.69;71.49
43115;BME280;28727;50.068;14.452;2022-10-15T00:53:05;98852.88;;;13.69;71.25
43115;BME280;28727;50.068;14.452;2022-10-15T00:55:40;98864.72;;;13.73;71.34
43115;BME280;28727;50.068;14.452;2022-10-15T00:58:17;98858.41;;;13.74;71.22
43115;BME280;28727;50.068;14.452;2022-10-15T01:00:53;98841.44;;;13.75;71.06
43115;BME280;28727;50.068;14.452;2022-10-15T01:03:27;98842.47;;;13.74;70.78
43115;BME280;28727;50.068;14.452;2022-10-15T01:05:59;98836.97;;;13.76;71.11
43115;BME280;28727;50.068;14.452;2022-10-15T01:08:32;98838.81;;;13.75;70.78
43115;BME280;28727;50.068;14.452;2022-10-15T01:11:29;98830.41;;;13.78;70.83
43115;BME280;28727;50.068;14.452;2022-10-15T01:16:57;98819.41;;;13.81;70.98
43115;BME280;28727;50.068;14.452;2022-10-15T01:39:32;98790.19;;;13.75;71.53
43115;BME280;28727;50.068;14.452;2022-10-15T01:42:28;98775.91;;;13.76;71.24
43115;BME280;28727;50.068;14.452;2022-10-15T01:45:05;98784.88;;;13.75;71.05
43115;BME280;28727;50.068;14.452;2022-10-15T01:47:54;98786.72;;;13.74;71.53
43115;BME280;28727;50.068;14.452;2022-10-15T01:50:29;98790.59;;;13.78;71.16
43115;BME280;28727;50.068;14.452;2022-10-15T01:53:05;98796.94;;;13.77;71.39
43115;BME280;28727;50.068;14.452;2022-10-15T01:55:41;98790.41;;;13.80;71.20
43115;BME280;28727;50.068;14.452;2022-10-15T01:58:16;98789.00;;;13.84;71.13
43115;BME280;28727;50.068;14.452;2022-10-15T02:00:51;98787.75;;;13.80;71.23
43115;BME280;28727;50.068;14.452;2022-10-15T02:03:25;98788.75;;;13.79;71.24
43115;BME280;28727;50.068;14.452;2022-10-15T02:06:03;98789.38;;;13.81;71.29
43115;BME280;28727;50.068;14.452;2022-10-15T02:09:09;98788.19;;;13.83;71.33
43115;BME280;28727;50.068;14.452;2022-10-15T02:11:53;98788.38;;;13.82;71.27
43115;BME280;28727;50.068;14.452;2022-10-15T02:14:37;98775.09;;;13.82;71.65
43115;BME280;28727;50.068;14.452;2022-10-15T02:17:15;98778.97;;;13.86;71.53
43115;BME280;28727;50.068;14.452;2022-10-15T02:19:56;98770.41;;;13.84;71.39
43115;BME280;28727;50.068;14.452;2022-10-15T02:22:34;98774.47;;;13.86;71.30
43115;BME280;28727;50.068;14.452;2022-10-15T02:25:15;98771.81;;;13.86;71.82
43115;BME280;28727;50.068;14.452;2022-10-15T02:27:51;98772.03;;;13.85;71.71
43115;BME280;28727;50.068;14.452;2022-10-15T02:30:27;98777.75;;;13.82;71.79
43115;BME280;28727;50.068;14.452;2022-10-15T02:33:01;98779.19;;;13.78;71.76
43115;BME280;28727;50.068;14.452;2022-10-15T02:35:33;98767.53;;;13.79;71.79
43115;BME280;28727;50.068;14.452;2022-10-15T02:38:12;98772.22;;;13.70;72.99
43115;BME280;28727;50.068;14.452;2022-10-15T02:40:47;98763.84;;;13.73;72.47
43115;BME280;28727;50.068;14.452;2022-10-15T02:43:23;98760.19;;;13.74;72.37
43115;BME280;28727;50.068;14.452;2022-10-15T02:45:55;98759.56;;;13.66;73.02
43115;BME280;28727;50.068;14.452;2022-10-15T02:48:27;98750.78;;;13.65;73.08
43115;BME280;28727;50.068;14.452;2022-10-15T02:50:58;98752.00;;;13.63;73.50
43115;BME280;28727;50.068;14.452;2022-10-15T02:53:30;98759.97;;;13.63;73.25
43115;BME280;28727;50.068;14.452;2022-10-15T02:56:02;98760.16;;;13.61;73.78
43115;BME280;28727;50.068;14.452;2022-10-15T02:58:34;98747.13;;;13.60;73.72
43115;BME280;28727;50.068;14.452;2022-10-15T03:01:06;98742.00;;;13.58;74.29
43115;BME280;28727;50.068;14.452;2022-10-15T03:03:38;98735.69;;;13.59;73.66
43115;BME280;28727;50.068;14.452;2022-10-15T03:06:10;98738.53;;;13.58;74.16
43115;BME280;28727;50.068;14.452;2022-10-15T03:08:42;98741.19;;;13.58;74.22
43115;BME280;28727;50.068;14.452;2022-10-15T03:11:15;98737.91;;;13.56;74.20
43115;BME280;28727;50.068;14.452;2022-10-15T03:13:47;98741.81;;;13.60;73.74
43115;BME280;28727;50.068;14.452;2022-10-15T03:16:19;98736.69;;;13.58;74.18
43115;BME280;28727;50.068;14.452;2022-10-15T03:18:51;98740.56;;;13.62;74.03
43115;BME280;28727;50.068;14.452;2022-10-15T03:21:23;98742.22;;;13.63;74.49
43115;BME280;28727;50.068;14.452;2022-10-15T03:23:59;98734.06;;;13.65;74.17
43115;BME280;28727;50.068;14.452;2022-10-15T03:26:31;98735.25;;;13.62;75.06
43115;BME280;28727;50.068;14.452;2022-10-15T03:29:02;98736.72;;;13.65;74.66
43115;BME280;28727;50.068;14.452;2022-10-15T03:31:53;98730.38;;;13.66;74.51
43115;BME280;28727;50.068;14.452;2022-10-15T03:34:25;98733.63;;;13.68;74.50
43115;BME280;28727;50.068;14.452;2022-10-15T03:36:57;98734.44;;;13.68;74.84
43115;BME280;28727;50.068;14.452;2022-10-15T03:39:29;98733.25;;;13.71;74.75
43115;BME280;28727;50.068;14.452;2022-10-15T03:42:05;98734.88;;;13.72;74.77
43115;BME280;28727;50.068;14.452;2022-10-15T03:44:48;98730.16;;;13.74;75.03
43115;BME280;28727;50.068;14.452;2022-10-15T03:47:23;98729.16;;;13.75;75.30
43115;BME280;28727;50.068;14.452;2022-10-15T03:49:55;98719.53;;;13.74;74.80
43115;BME280;28727;50.068;14.452;2022-10-15T03:52:27;98724.25;;;13.72;75.17
43115;BME280;28727;50.068;14.452;2022-10-15T03:54:59;98724.47;;;13.70;75.44
43115;BME280;28727;50.068;14.452;2022-10-15T03:57:38;98725.06;;;13.72;75.51
43115;BME280;28727;50.068;14.452;2022-10-15T04:00:12;98726.09;;;13.71;75.77
43115;BME280;28727;50.068;14.452;2022-10-15T04:02:44;98726.91;;;13.72;75.37
43115;BME280;28727;50.068;14.452;2022-10-15T04:05:27;98721.59;;;13.72;75.98
43115;BME280;28727;50.068;14.452;2022-10-15T04:08:05;98726.69;;;13.73;75.74
43115;BME280;28727;50.068;14.452;2022-10-15T04:10:42;98722.63;;;13.71;75.88
43115;BME280;28727;50.068;14.452;2022-10-15T04:13:14;98727.09;;;13.70;75.88
43115;BME280;28727;50.068;14.452;2022-10-15T04:15:46;98719.16;;;13.70;76.37
43115;BME280;28727;50.068;14.452;2022-10-15T04:18:18;98719.78;;;13.72;76.08
43115;BME280;28727;50.068;14.452;2022-10-15T04:20:58;98709.34;;;13.71;76.29
43115;BME280;28727;50.068;14.452;2022-10-15T04:23:30;98710.38;;;13.70;76.74
43115;BME280;28727;50.068;14.452;2022-10-15T04:26:25;98706.88;;;13.69;76.87
43115;BME280;28727;50.068;14.452;2022-10-15T04:28:57;98709.75;;;13.68;76.57
43115;BME280;28727;50.068;14.452;2022-10-15T04:31:29;98706.25;;;13.67;76.95
43115;BME280;28727;50.068;14.452;2022-10-15T04:34:06;98709.16;;;13.66;77.18
43115;BME280;28727;50.068;14.452;2022-10-15T04:36:40;98714.66;;;13.64;76.98
43115;BME280;28727;50.068;14.452;2022-10-15T04:39:23;98711.81;;;13.66;77.15
43115;BME280;28727;50.068;14.452;2022-10-15T04:41:55;98713.63;;;13.65;77.57
43115;BME280;28727;50.068;14.452;2022-10-15T04:44:32;98716.69;;;13.69;77.43
43115;BME280;28727;50.068;14.452;2022-10-15T04:47:05;98716.50;;;13.70;77.54
43115;BME280;28727;50.068;14.452;2022-10-15T04:49:44;98713.84;;;13.70;77.28
43115;BME280;28727;50.068;14.452;2022-10-15T04:52:51;98711.56;;;13.67;77.78
43115;BME280;28727;50.068;14.452;2022-10-15T04:55:23;98709.75;;;13.68;77.41
43115;BME280;28727;50.068;14.452;2022-10-15T04:58:00;98711.38;;;13.69;77.59
43115;BME280;28727;50.068;14.452;2022-10-15T05:00:33;98717.13;;;13.66;78.06
43115;BME280;28727;50.068;14.452;2022-10-15T05:03:30;98708.13;;;13.60;77.99
43115;BME280;28727;50.068;14.452;2022-10-15T05:06:12;98711.19;;;13.57;77.90
43115;BME280;28727;50.068;14.452;2022-10-15T05:08:48;98704.03;;;13.58;78.14
43115;BME280;28727;50.068;14.452;2022-10-15T05:11:26;98711.59;;;13.61;78.62
43115;BME280;28727;50.068;14.452;2022-10-15T05:14:00;98711.38;;;13.62;78.69
43115;BME280;28727;50.068;14.452;2022-10-15T05:16:35;98712.81;;;13.65;78.73
43115;BME280;28727;50.068;14.452;2022-10-15T05:19:07;98704.66;;;13.60;79.26
43115;BME280;28727;50.068;14.452;2022-10-15T05:21:44;98707.09;;;13.61;79.04
43115;BME280;28727;50.068;14.452;2022-10-15T05:24:30;98714.25;;;13.61;79.29
43115;BME280;28727;50.068;14.452;2022-10-15T05:27:15;98715.47;;;13.65;79.38
43115;BME280;28727;50.068;14.452;2022-10-15T05:29:47;98719.75;;;13.66;79.46
43115;BME280;28727;50.068;14.452;2022-10-15T05:32:21;98716.50;;;13.64;79.34
43115;BME280;28727;50.068;14.452;2022-10-15T05:34:54;98711.81;;;13.59;80.18
43115;BME280;28727;50.068;14.452;2022-10-15T05:37:36;98720.97;;;13.57;80.24
43115;BME280;28727;50.068;14.452;2022-10-15T05:40:08;98721.41;;;13.60;79.76
43115;BME280;28727;50.068;14.452;2022-10-15T05:42:40;98727.94;;;13.64;80.13
43115;BME280;28727;50.068;14.452;2022-10-15T05:45:12;98727.09;;;13.64;80.05
43115;BME280;28727;50.068;14.452;2022-10-15T05:47:45;98723.63;;;13.63;80.16
43115;BME280;28727;50.068;14.452;2022-10-15T05:50:22;98727.09;;;13.64;79.84
43115;BME280;28727;50.068;14.452;2022-10-15T05:53:00;98725.25;;;13.58;80.71
43115;BME280;28727;50.068;14.452;2022-10-15T05:55:38;98721.97;;;13.56;80.78
43115;BME280;28727;50.068;14.452;2022-10-15T05:58:10;98725.69;;;13.55;81.17
43115;BME280;28727;50.068;14.452;2022-10-15T06:00:44;98732.22;;;13.59;81.21
43115;BME280;28727;50.068;14.452;2022-10-15T06:03:17;98729.56;;;13.59;81.31
43115;BME280;28727;50.068;14.452;2022-10-15T06:05:49;98741.19;;;13.64;81.34
43115;BME280;28727;50.068;14.452;2022-10-15T06:08:22;98735.47;;;13.67;81.25
43115;BME280;28727;50.068;14.452;2022-10-15T06:11:00;98733.03;;;13.72;80.93
43115;BME280;28727;50.068;14.452;2022-10-15T06:13:40;98735.47;;;13.74;81.14
43115;BME280;28727;50.068;14.452;2022-10-15T06:16:16;98734.44;;;13.75;81.13
43115;BME280;28727;50.068;14.452;2022-10-15T06:18:54;98741.22;;;13.77;81.00
43115;BME280;28727;50.068;14.452;2022-10-15T06:21:26;98743.44;;;13.80;80.98
43115;BME280;28727;50.068;14.452;2022-10-15T06:23:58;98739.56;;;13.83;81.63
43115;BME280;28727;50.068;14.452;2022-10-15T06:26:35;98745.47;;;13.85;81.34
43115;BME280;28727;50.068;14.452;2022-10-15T06:29:08;98736.09;;;13.89;81.37
43115;BME280;28727;50.068;14.452;2022-10-15T06:31:40;98742.44;;;13.94;81.51
43115;BME280;28727;50.068;14.452;2022-10-15T06:34:12;98752.44;;;13.99;81.33
43115;BME280;28727;50.068;14.452;2022-10-15T06:36:44;98745.47;;;13.98;81.51
43115;BME280;28727;50.068;14.452;2022-10-15T06:39:16;98743.44;;;13.93;81.65
43115;BME280;28727;50.068;14.452;2022-10-15T06:41:48;98745.91;;;13.95;82.18
43115;BME280;28727;50.068;14.452;2022-10-15T06:44:20;98746.28;;;13.99;82.37
43115;BME280;28727;50.068;14.452;2022-10-15T06:46:53;98745.91;;;14.02;81.89
43115;BME280;28727;50.068;14.452;2022-10-15T06:49:26;98747.31;;;14.04;81.89
43115;BME280;28727;50.068;14.452;2022-10-15T06:51:58;98745.47;;;14.05;82.26
43115;BME280;28727;50.068;14.452;2022-10-15T06:54:34;98746.09;;;14.07;82.11
43115;BME280;28727;50.068;14.452;2022-10-15T06:57:09;98747.75;;;14.08;82.25
43115;BME280;28727;50.068;14.452;2022-10-15T06:59:41;98744.66;;;14.11;82.01
43115;BME280;28727;50.068;14.452;2022-10-15T07:02:13;98748.94;;;14.12;82.28
43115;BME280;28727;50.068;14.452;2022-10-15T07:04:49;98751.59;;;14.12;82.50
43115;BME280;28727;50.068;14.452;2022-10-15T07:07:24;98754.25;;;14.12;82.34
43115;BME280;28727;50.068;14.452;2022-10-15T07:09:56;98756.72;;;14.13;82.18
43115;BME280;28727;50.068;14.452;2022-10-15T07:12:28;98760.59;;;14.11;82.11
43115;BME280;28727;50.068;14.452;2022-10-15T07:15:00;98755.09;;;14.06;82.72
43115;BME280;28727;50.068;14.452;2022-10-15T07:17:32;98758.13;;;14.09;82.72
43115;BME280;28727;50.068;14.452;2022-10-15T07:20:06;98756.50;;;14.08;82.86
43115;BME280;28727;50.068;14.452;2022-10-15T07:22:38;98757.31;;;14.09;82.40
43115;BME280;28727;50.068;14.452;2022-10-15T07:25:10;98768.56;;;14.04;82.50
43115;BME280;28727;50.068;14.452;2022-10-15T07:27:42;98760.78;;;14.03;83.31
43115;BME280;28727;50.068;14.452;2022-10-15T07:30:13;98763.88;;;14.06;82.86
43115;BME280;28727;50.068;14.452;2022-10-15T07:32:47;98767.13;;;14.08;82.76
43115;BME280;28727;50.068;14.452;2022-10-15T07:35:20;98770.00;;;14.07;83.21
43115;BME280;28727;50.068;14.452;2022-10-15T07:37:53;98760.38;;;14.12;82.96
43115;BME280;28727;50.068;14.452;2022-10-15T07:40:25;98754.66;;;14.09;82.87
43115;BME280;28727;50.068;14.452;2022-10-15T07:42:58;98767.34;;;14.07;82.99
43115;BME280;28727;50.068;14.452;2022-10-15T07:45:34;98764.47;;;14.08;83.49
43115;BME280;28727;50.068;14.452;2022-10-15T07:48:08;98765.72;;;14.12;82.99
43115;BME280;28727;50.068;14.452;2022-10-15T07:50:40;98772.44;;;14.15;83.60
43115;BME280;28727;50.068;14.452;2022-10-15T07:53:12;98770.19;;;14.18;83.34
43115;BME280;28727;50.068;14.452;2022-10-15T07:55:47;98767.31;;;14.20;83.18
43115;BME280;28727;50.068;14.452;2022-10-15T07:58:19;98770.78;;;14.27;83.11
43115;BME280;28727;50.068;14.452;2022-10-15T08:00:51;98763.63;;;14.27;83.15
43115;BME280;28727;50.068;14.452;2022-10-15T08:03:26;98756.09;;;14.31;83.08
43115;BME280;28727;50.068;14.452;2022-10-15T08:05:59;98752.81;;;14.29;83.18
43115;BME280;28727;50.068;14.452;2022-10-15T08:08:32;98763.44;;;14.29;83.26
43115;BME280;28727;50.068;14.452;2022-10-15T08:11:14;98758.31;;;14.34;83.54
43115;BME280;28727;50.068;14.452;2022-10-15T08:13:51;98760.59;;;14.37;83.43
43115;BME280;28727;50.068;14.452;2022-10-15T08:16:23;98759.34;;;14.40;83.61
43115;BME280;28727;50.068;14.452;2022-10-15T08:19:04;98753.63;;;14.43;83.38
43115;BME280;28727;50.068;14.452;2022-10-15T08:21:36;98765.47;;;14.47;83.13
43115;BME280;28727;50.068;14.452;2022-10-15T08:24:08;98760.34;;;14.45;83.39
43115;BME280;28727;50.068;14.452;2022-10-15T08:26:42;98753.59;;;14.49;83.34
43115;BME280;28727;50.068;14.452;2022-10-15T08:29:15;98769.97;;;14.53;83.07
43115;BME280;28727;50.068;14.452;2022-10-15T08:31:54;98769.97;;;14.53;83.44
43115;BME280;28727;50.068;14.452;2022-10-15T08:34:27;98768.72;;;14.55;83.37
43115;BME280;28727;50.068;14.452;2022-10-15T08:36:58;98765.84;;;14.63;83.41
43115;BME280;28727;50.068;14.452;2022-10-15T08:39:30;98760.53;;;14.63;82.72
43115;BME280;28727;50.068;14.452;2022-10-15T08:42:05;98758.03;;;14.68;83.59
43115;BME280;28727;50.068;14.452;2022-10-15T08:45:03;98761.06;;;14.79;83.00
43115;BME280;28727;50.068;14.452;2022-10-15T08:47:49;98761.66;;;14.87;82.57
43115;BME280;28727;50.068;14.452;2022-10-15T08:50:44;98772.28;;;14.94;82.57
43115;BME280;28727;50.068;14.452;2022-10-15T08:53:25;98758.97;;;15.00;82.59
43115;BME280;28727;50.068;14.452;2022-10-15T09:02:23;98795.75;;;15.10;81.76
43115;BME280;28727;50.068;14.452;2022-10-15T09:05:00;98788.56;;;15.10;81.43
43115;BME280;28727;50.068;14.452;2022-10-15T09:08:17;98787.13;;;15.14;81.46
43115;BME280;28727;50.068;14.452;2022-10-15T09:10:51;98784.25;;;15.16;81.15
43115;BME280;28727;50.068;14.452;2022-10-15T09:13:34;98788.34;;;15.19;81.59
43115;BME280;28727;50.068;14.452;2022-10-15T09:16:40;98791.00;;;15.19;81.04
43115;BME280;28727;50.068;14.452;2022-10-15T09:19:21;98783.19;;;15.24;81.39
43115;BME280;28727;50.068;14.452;2022-10-15T09:21:54;98785.84;;;15.30;80.77
43115;BME280;28727;50.068;14.452;2022-10-15T09:24:30;98781.31;;;15.31;80.51
43115;BME280;28727;50.068;14.452;2022-10-15T09:27:08;98793.53;;;15.38;80.62
43115;BME280;28727;50.068;14.452;2022-10-15T09:30:02;98788.59;;;15.48;80.41
43115;BME280;28727;50.068;14.452;2022-10-15T09:42:17;98796.50;;;15.62;80.13
43115;BME280;28727;50.068;14.452;2022-10-15T09:45:04;98791.59;;;15.65;79.40
43115;BME280;28727;50.068;14.452;2022-10-15T09:47:40;98799.66;;;15.83;79.42
43115;BME280;28727;50.068;14.452;2022-10-15T09:50:13;98803.22;;;16.02;78.42
43115;BME280;28727;50.068;14.452;2022-10-15T09:53:35;98803.47;;;15.94;77.94
43115;BME280;28727;50.068;14.452;2022-10-15T09:55:55;98810.47;;;15.88;77.95
43115;BME280;28727;50.068;14.452;2022-10-15T09:58:58;98810.66;;;15.93;77.58
43115;BME280;28727;50.068;14.452;2022-10-15T10:01:31;98812.88;;;15.96;77.63
43115;BME280;28727;50.068;14.452;2022-10-15T10:04:33;98817.97;;;15.98;77.63
43115;BME280;28727;50.068;14.452;2022-10-15T10:07:33;98824.16;;;15.92;76.97
43115;BME280;28727;50.068;14.452;2022-10-15T10:10:26;98823.53;;;15.96;77.36
43115;BME280;28727;50.068;14.452;2022-10-15T10:13:01;98821.88;;;16.02;77.46
43115;BME280;28727;50.068;14.452;2022-10-15T10:15:35;98819.78;;;16.04;77.82
43115;BME280;28727;50.068;14.452;2022-10-15T10:18:18;98820.59;;;16.05;77.42
43115;BME280;28727;50.068;14.452;2022-10-15T10:20:59;98817.31;;;16.03;77.02
43115;BME280;28727;50.068;14.452;2022-10-15T10:23:34;98812.59;;;16.05;77.25
43115;BME280;28727;50.068;14.452;2022-10-15T10:26:10;98814.25;;;16.06;77.49
43115;BME280;28727;50.068;14.452;2022-10-15T10:28:53;98815.84;;;16.13;77.83
43115;BME280;28727;50.068;14.452;2022-10-15T10:31:35;98812.28;;;16.19;78.00
43115;BME280;28727;50.068;14.452;2022-10-15T10:34:17;98818.50;;;16.13;77.70
43115;BME280;28727;50.068;14.452;2022-10-15T10:36:53;98824.44;;;16.09;77.30
43115;BME280;28727;50.068;14.452;2022-10-15T10:39:31;98822.59;;;16.09;77.94
43115;BME280;28727;50.068;14.452;2022-10-15T10:44:48;98828.72;;;16.16;77.56
43115;BME280;28727;50.068;14.452;2022-10-15T10:47:24;98827.41;;;16.01;78.51
43115;BME280;28727;50.068;14.452;2022-10-15T10:50:25;98825.97;;;15.98;78.84
43115;BME280;28727;50.068;14.452;2022-10-15T10:53:12;98818.97;;;16.04;78.73
43115;BME280;28727;50.068;14.452;2022-10-15T10:55:48;98827.13;;;16.09;78.85
43115;BME280;28727;50.068;14.452;2022-10-15T10:58:32;98827.13;;;16.09;78.88
43115;BME280;28727;50.068;14.452;2022-10-15T11:01:05;98831.41;;;16.10;78.95
43115;BME280;28727;50.068;14.452;2022-10-15T11:03:40;98823.63;;;16.08;78.55
43115;BME280;28727;50.068;14.452;2022-10-15T11:06:29;98832.63;;;16.14;79.23
43115;BME280;28727;50.068;14.452;2022-10-15T11:14:52;98839.25;;;16.29;77.91
43115;BME280;28727;50.068;14.452;2022-10-15T11:17:29;98836.66;;;16.23;77.83
43115;BME280;28727;50.068;14.452;2022-10-15T11:20:24;98831.78;;;16.20;78.21
43115;BME280;28727;50.068;14.452;2022-10-15T11:55:43;98819.75;;;16.78;76.75
43115;BME280;28727;50.068;14.452;2022-10-15T11:58:48;98816.50;;;16.95;77.47
43115;BME280;28727;50.068;14.452;2022-10-15T12:01:48;98812.84;;;17.26;76.27
43115;BME280;28727;50.068;14.452;2022-10-15T12:07:43;98818.94;;;17.63;75.01
43115;BME280;28727;50.068;14.452;2022-10-15T12:13:48;98812.25;;;17.72;71.78
43115;BME280;28727;50.068;14.452;2022-10-15T12:16:45;98815.97;;;17.52;72.41
43115;BME280;28727;50.068;14.452;2022-10-15T12:19:49;98812.25;;;17.53;73.21
43115;BME280;28727;50.068;14.452;2022-10-15T12:31:00;98819.81;;;17.56;73.33
43115;BME280;28727;50.068;14.452;2022-10-15T12:33:36;98828.22;;;17.60;73.23
43115;BME280;28727;50.068;14.452;2022-10-15T12:39:21;98830.63;;;17.32;73.28
43115;BME280;28727;50.068;14.452;2022-10-15T12:42:27;98828.75;;;17.32;74.11
43115;BME280;28727;50.068;14.452;2022-10-15T12:45:03;98827.72;;;17.33;73.95
43115;BME280;28727;50.068;14.452;2022-10-15T12:47:52;98829.81;;;17.31;73.58
43115;BME280;28727;50.068;14.452;2022-10-15T12:50:28;98832.72;;;17.30;73.77
43115;BME280;28727;50.068;14.452;2022-10-15T12:53:05;98827.16;;;17.31;73.63
43115;BME280;28727;50.068;14.452;2022-10-15T12:58:50;98828.53;;;17.34;74.18
43115;BME280;28727;50.068;14.452;2022-10-15T13:03:55;98827.72;;;17.33;74.13
43115;BME280;28727;50.068;14.452;2022-10-15T13:06:33;98835.28;;;17.36;74.32
43115;BME280;28727;50.068;14.452;2022-10-15T13:11:43;98839.00;;;17.35;74.33
43115;BME280;28727;50.068;14.452;2022-10-15T13:14:37;98832.09;;;17.28;75.00
43115;BME280;28727;50.068;14.452;2022-10-15T13:17:20;98831.75;;;17.24;75.10
43115;BME280;28727;50.068;14.452;2022-10-15T13:20:04;98831.28;;;17.27;75.12
43115;BME280;28727;50.068;14.452;2022-10-15T13:22:38;98833.88;;;17.34;74.91
43115;BME280;28727;50.068;14.452;2022-10-15T13:25:16;98836.38;;;17.47;74.98
43115;BME280;28727;50.068;14.452;2022-10-15T13:27:48;98830.81;;;17.48;74.64
43115;BME280;28727;50.068;14.452;2022-10-15T13:30:20;98832.59;;;17.54;74.26
43115;BME280;28727;50.068;14.452;2022-10-15T13:32:57;98833.84;;;17.52;74.22
43115;BME280;28727;50.068;14.452;2022-10-15T13:35:30;98828.72;;;17.50;74.47
43115;BME280;28727;50.068;14.452;2022-10-15T13:38:27;98835.25;;;17.54;75.02
43115;BME280;28727;50.068;14.452;2022-10-15T13:40:59;98834.16;;;17.62;75.01
43115;BME280;28727;50.068;14.452;2022-10-15T13:43:35;98836.28;;;17.72;74.64
43115;BME280;28727;50.068;14.452;2022-10-15T13:46:14;98843.41;;;17.78;74.24
43115;BME280;28727;50.068;14.452;2022-10-15T13:49:11;98834.56;;;17.77;74.15
43115;BME280;28727;50.068;14.452;2022-10-15T13:51:46;98836.31;;;17.83;74.21
43115;BME280;28727;50.068;14.452;2022-10-15T13:54:26;98843.44;;;17.89;73.56
43115;BME280;28727;50.068;14.452;2022-10-15T13:57:01;98850.16;;;17.92;73.73
43115;BME280;28727;50.068;14.452;2022-10-15T13:59:35;98844.47;;;17.88;73.64
43115;BME280;28727;50.068;14.452;2022-10-15T14:02:10;98846.09;;;17.89;73.54
43115;BME280;28727;50.068;14.452;2022-10-15T14:04:42;98854.47;;;17.93;73.60
43115;BME280;28727;50.068;14.452;2022-10-15T14:07:23;98855.88;;;17.95;74.00
43115;BME280;28727;50.068;14.452;2022-10-15T14:09:58;98856.00;;;18.00;73.43
43115;BME280;28727;50.068;14.452;2022-10-15T14:12:30;98859.72;;;17.99;73.30
43115;BME280;28727;50.068;14.452;2022-10-15T14:15:38;98862.53;;;18.05;73.43
43115;BME280;28727;50.068;14.452;2022-10-15T14:18:12;98864.50;;;18.09;73.78
43115;BME280;28727;50.068;14.452;2022-10-15T14:20:46;98863.13;;;18.07;72.87
43115;BME280;28727;50.068;14.452;2022-10-15T14:23:22;98868.78;;;17.98;73.18
43115;BME280;28727;50.068;14.452;2022-10-15T14:26:01;98870.97;;;17.90;73.54
43115;BME280;28727;50.068;14.452;2022-10-15T14:28:33;98865.00;;;17.76;74.09
43115;BME280;28727;50.068;14.452;2022-10-15T14:31:06;98857.66;;;17.72;74.28
43115;BME280;28727;50.068;14.452;2022-10-15T14:33:41;98861.97;;;17.54;75.02
43115;BME280;28727;50.068;14.452;2022-10-15T14:38:52;98863.38;;;17.57;75.36
43115;BME280;28727;50.068;14.452;2022-10-15T14:41:31;98864.72;;;17.48;75.76
43115;BME280;28727;50.068;14.452;2022-10-15T14:44:16;98867.19;;;17.49;76.15
43115;BME280;28727;50.068;14.452;2022-10-15T14:46:50;98863.09;;;17.47;76.13
43115;BME280;28727;50.068;14.452;2022-10-15T14:49:31;98863.69;;;17.49;76.23
43115;BME280;28727;50.068;14.452;2022-10-15T14:52:06;98854.03;;;17.48;76.35
43115;BME280;28727;50.068;14.452;2022-10-15T14:54:56;98857.28;;;17.50;76.21
43115;BME280;28727;50.068;14.452;2022-10-15T14:57:31;98861.47;;;17.46;76.73
43115;BME280;28727;50.068;14.452;2022-10-15T15:00:28;98863.53;;;17.44;76.93
43115;BME280;28727;50.068;14.452;2022-10-15T15:03:04;98860.06;;;17.43;77.14
43115;BME280;28727;50.068;14.452;2022-10-15T15:05:48;98855.38;;;17.39;77.32
43115;BME280;28727;50.068;14.452;2022-10-15T15:08:26;98868.50;;;17.40;77.60
43115;BME280;28727;50.068;14.452;2022-10-15T15:11:00;98868.28;;;17.42;77.44
43115;BME280;28727;50.068;14.452;2022-10-15T15:13:40;98865.41;;;17.43;77.37
43115;BME280;28727;50.068;14.452;2022-10-15T15:16:16;98864.34;;;17.44;77.38
43115;BME280;28727;50.068;14.452;2022-10-15T15:18:48;98863.78;;;17.42;77.53
43115;BME280;28727;50.068;14.452;2022-10-15T15:21:21;98860.50;;;17.40;77.38
43115;BME280;28727;50.068;14.452;2022-10-15T15:23:54;98865.50;;;17.37;77.66
43115;BME280;28727;50.068;14.452;2022-10-15T15:26:28;98866.06;;;17.39;77.70
43115;BME280;28727;50.068;14.452;2022-10-15T15:28:59;98865.25;;;17.38;77.81
43115;BME280;28727;50.068;14.452;2022-10-15T15:31:32;98868.97;;;17.37;78.00
43115;BME280;28727;50.068;14.452;2022-10-15T15:34:04;98868.72;;;17.39;78.07